Decoded Metar for EIME (CASEMENT in IRELAND) (IATA:N/A) | Meteo·Mobile Aviation Weather
aviador You're here:

EIME Decoded Metar

CASEMENT in IRELAND
Report Time2019-07-19 18:00:00
UTC Time2019-07-19 18:33:19
Flight Rules vfr VFR
Wind210° at 13 kt
W.Decomp.*RWY 23: 12.6 kt HW 3.4 kt LCW
RWY 29: 3.4 kt HW 12.6 kt LCW
Visibility9999 m
Phenomena:N/A
Clouds:Few 020 Hf
Few CB 024 Hf
Expected CloudBase > 1,200 ft AGL from Temp-Dew spread
CeilingNone
Temp19°C (ISA +5)
Dew Point16°C (83% RH)
AAT16.3°C
QNH0999 hPa
Density Alt1,565 ft
Elevation305 ft
Report Wrong Elevation
Raw Report
METAR EIME 191800Z 21013KT 9999 FEW020 FEW024CB 19/16 Q0999=

Extra information for EIME:More info

Metar Taf Metar & Taf Last 4 Metars F.Rules Stats Wind Profile Meteogram Temp Stats Airport Information Weather charts Add Link Nearby VenuesMetar ALERT Operation Metar Decoded Social comments